sensor_id;sensor_type;location;lat;lon;timestamp;pressure;altitude;pressure_sealevel;temperature;humidity
13033;BME280;6583;42.632;23.298;2023-02-01T00:02:05;71797.22;;;-146.40;73.59
13033;BME280;6583;42.632;23.298;2023-02-01T00:04:32;71807.34;;;-146.40;73.00
13033;BME280;6583;42.632;23.298;2023-02-01T00:06:59;71809.34;;;-146.40;72.52
13033;BME280;6583;42.632;23.298;2023-02-01T00:09:26;71801.25;;;-146.40;72.77
13033;BME280;6583;42.632;23.298;2023-02-01T00:11:53;71801.25;;;-146.40;73.31
13033;BME280;6583;42.632;23.298;2023-02-01T00:14:20;71801.25;;;-146.40;72.62
13033;BME280;6583;42.632;23.298;2023-02-01T00:16:47;71793.16;;;-146.40;72.10
13033;BME280;6583;42.632;23.298;2023-02-01T00:19:15;71797.22;;;-146.40;71.81
13033;BME280;6583;42.632;23.298;2023-02-01T00:21:42;71807.34;;;-146.40;71.16
13033;BME280;6583;42.632;23.298;2023-02-01T00:24:11;71799.25;;;-146.40;71.60
13033;BME280;6583;42.632;23.298;2023-02-01T00:26:40;71803.28;;;-146.40;71.28
13033;BME280;6583;42.632;23.298;2023-02-01T00:29:10;71795.19;;;-146.40;71.55
13033;BME280;6583;42.632;23.298;2023-02-01T00:31:37;71795.19;;;-146.40;70.17
13033;BME280;6583;42.632;23.298;2023-02-01T00:34:04;71797.22;;;-146.40;70.23
13033;BME280;6583;42.632;23.298;2023-02-01T00:36:32;71801.25;;;-146.40;70.93
13033;BME280;6583;42.632;23.298;2023-02-01T00:38:59;71815.44;;;-146.40;70.58
13033;BME280;6583;42.632;23.298;2023-02-01T00:41:26;71821.50;;;-146.40;70.17
13033;BME280;6583;42.632;23.298;2023-02-01T00:43:53;71809.34;;;-146.40;70.95
13033;BME280;6583;42.632;23.298;2023-02-01T00:46:20;71803.28;;;-146.40;70.58
13033;BME280;6583;42.632;23.298;2023-02-01T00:48:47;71803.28;;;-146.40;70.90
13033;BME280;6583;42.632;23.298;2023-02-01T00:51:16;71819.47;;;-146.40;69.92
13033;BME280;6583;42.632;23.298;2023-02-01T00:53:44;71799.25;;;-146.40;69.20
13033;BME280;6583;42.632;23.298;2023-02-01T00:56:11;71795.19;;;-146.40;69.32
13033;BME280;6583;42.632;23.298;2023-02-01T00:58:38;71807.34;;;-146.40;68.91
13033;BME280;6583;42.632;23.298;2023-02-01T01:01:06;71805.31;;;-146.40;68.86
13033;BME280;6583;42.632;23.298;2023-02-01T01:03:35;71807.34;;;-146.40;69.04
13033;BME280;6583;42.632;23.298;2023-02-01T01:06:04;71803.28;;;-146.40;69.75
13033;BME280;6583;42.632;23.298;2023-02-01T01:08:31;71813.41;;;-146.40;68.07
13033;BME280;6583;42.632;23.298;2023-02-01T01:11:04;71827.56;;;-146.40;68.05
13033;BME280;6583;42.632;23.298;2023-02-01T01:13:31;71829.59;;;-146.40;68.02
13033;BME280;6583;42.632;23.298;2023-02-01T01:16:00;71839.72;;;-146.40;66.47
13033;BME280;6583;42.632;23.298;2023-02-01T01:18:28;71829.59;;;-146.40;67.55
13033;BME280;6583;42.632;23.298;2023-02-01T01:20:54;71829.59;;;-146.40;67.28
13033;BME280;6583;42.632;23.298;2023-02-01T01:23:21;71833.66;;;-146.40;66.63
13033;BME280;6583;42.632;23.298;2023-02-01T01:25:48;71831.63;;;-146.40;65.95
13033;BME280;6583;42.632;23.298;2023-02-01T01:28:16;71821.50;;;-146.40;66.13
13033;BME280;6583;42.632;23.298;2023-02-01T01:30:42;71825.53;;;-146.40;66.47
13033;BME280;6583;42.632;23.298;2023-02-01T01:33:09;71833.66;;;-146.40;66.17
13033;BME280;6583;42.632;23.298;2023-02-01T01:35:36;71833.66;;;-146.40;66.29
13033;BME280;6583;42.632;23.298;2023-02-01T01:38:03;71833.66;;;-146.40;66.25
13033;BME280;6583;42.632;23.298;2023-02-01T01:40:30;71845.78;;;-146.40;66.50
13033;BME280;6583;42.632;23.298;2023-02-01T01:42:57;71841.75;;;-146.40;65.86
13033;BME280;6583;42.632;23.298;2023-02-01T01:45:27;71841.75;;;-146.40;66.02
13033;BME280;6583;42.632;23.298;2023-02-01T01:47:56;71845.78;;;-146.40;66.12
13033;BME280;6583;42.632;23.298;2023-02-01T01:50:26;71849.84;;;-146.40;66.06
13033;BME280;6583;42.632;23.298;2023-02-01T01:52:55;71849.84;;;-146.40;66.32
13033;BME280;6583;42.632;23.298;2023-02-01T01:55:24;71859.97;;;-146.40;66.43
13033;BME280;6583;42.632;23.298;2023-02-01T01:57:57;71866.03;;;-146.40;66.99
13033;BME280;6583;42.632;23.298;2023-02-01T02:00:27;71861.97;;;-146.40;66.95
13033;BME280;6583;42.632;23.298;2023-02-01T02:02:57;71868.06;;;-146.40;67.04
13033;BME280;6583;42.632;23.298;2023-02-01T02:05:25;71866.03;;;-146.40;67.21
13033;BME280;6583;42.632;23.298;2023-02-01T02:07:58;71878.16;;;-146.40;66.43
13033;BME280;6583;42.632;23.298;2023-02-01T02:10:24;71866.03;;;-146.40;66.86
13033;BME280;6583;42.632;23.298;2023-02-01T02:13:13;71864.00;;;-146.40;66.07
13033;BME280;6583;42.632;23.298;2023-02-01T02:15:45;71855.91;;;-146.40;65.61
13033;BME280;6583;42.632;23.298;2023-02-01T02:18:19;71857.94;;;-146.40;66.06
13033;BME280;6583;42.632;23.298;2023-02-01T02:21:03;71847.81;;;-146.40;66.35
13033;BME280;6583;42.632;23.298;2023-02-01T02:26:57;71866.03;;;-146.40;62.27
13033;BME280;6583;42.632;23.298;2023-02-01T02:29:45;71866.03;;;-146.40;60.45
13033;BME280;6583;42.632;23.298;2023-02-01T02:32:43;71866.03;;;-146.40;60.88
13033;BME280;6583;42.632;23.298;2023-02-01T02:35:21;71857.94;;;-146.40;60.67
13033;BME280;6583;42.632;23.298;2023-02-01T02:37:55;71861.97;;;-146.40;60.33
13033;BME280;6583;42.632;23.298;2023-02-01T02:40:31;71861.97;;;-146.40;60.71
13033;BME280;6583;42.632;23.298;2023-02-01T02:43:04;71857.94;;;-146.40;62.29
13033;BME280;6583;42.632;23.298;2023-02-01T02:45:55;71853.88;;;-146.40;62.86
13033;BME280;6583;42.632;23.298;2023-02-01T02:48:47;71843.75;;;-146.40;61.99
13033;BME280;6583;42.632;23.298;2023-02-01T02:51:21;71831.63;;;-146.40;62.85
13033;BME280;6583;42.632;23.298;2023-02-01T02:54:10;71833.66;;;-146.40;61.52
13033;BME280;6583;42.632;23.298;2023-02-01T02:56:57;71833.66;;;-146.40;61.46
13033;BME280;6583;42.632;23.298;2023-02-01T02:59:44;71833.66;;;-146.40;61.67
13033;BME280;6583;42.632;23.298;2023-02-01T03:02:30;71837.69;;;-146.40;62.03
13033;BME280;6583;42.632;23.298;2023-02-01T03:05:15;71837.69;;;-146.40;62.71
13033;BME280;6583;42.632;23.298;2023-02-01T03:07:57;71847.81;;;-146.40;61.97
13033;BME280;6583;42.632;23.298;2023-02-01T03:10:37;71849.84;;;-146.40;61.81
13033;BME280;6583;42.632;23.298;2023-02-01T03:13:11;71849.84;;;-146.40;62.44
13033;BME280;6583;42.632;23.298;2023-02-01T03:15:41;71857.94;;;-146.40;62.42
13033;BME280;6583;42.632;23.298;2023-02-01T03:18:13;71857.94;;;-146.40;61.96
13033;BME280;6583;42.632;23.298;2023-02-01T03:20:44;71861.97;;;-146.40;62.52
13033;BME280;6583;42.632;23.298;2023-02-01T03:23:15;71853.88;;;-146.40;62.60
13033;BME280;6583;42.632;23.298;2023-02-01T03:25:43;71855.91;;;-146.40;62.54
13033;BME280;6583;42.632;23.298;2023-02-01T03:28:11;71849.84;;;-146.40;61.88
13033;BME280;6583;42.632;23.298;2023-02-01T03:30:40;71853.88;;;-146.40;62.39
13033;BME280;6583;42.632;23.298;2023-02-01T03:33:10;71849.84;;;-146.40;63.16
13033;BME280;6583;42.632;23.298;2023-02-01T03:35:52;71847.81;;;-146.40;63.35
13033;BME280;6583;42.632;23.298;2023-02-01T03:38:27;71849.84;;;-146.40;63.75
13033;BME280;6583;42.632;23.298;2023-02-01T03:40:58;71849.84;;;-146.40;63.69
13033;BME280;6583;42.632;23.298;2023-02-01T03:43:34;71831.63;;;-146.40;63.51
13033;BME280;6583;42.632;23.298;2023-02-01T03:46:09;71837.69;;;-146.40;62.89
13033;BME280;6583;42.632;23.298;2023-02-01T03:48:39;71829.59;;;-146.40;62.59
13033;BME280;6583;42.632;23.298;2023-02-01T03:51:07;71831.63;;;-146.40;62.60
13033;BME280;6583;42.632;23.298;2023-02-01T03:53:36;71825.53;;;-146.40;62.51
13033;BME280;6583;42.632;23.298;2023-02-01T03:56:04;71821.50;;;-146.40;63.22
13033;BME280;6583;42.632;23.298;2023-02-01T03:58:32;71821.50;;;-146.40;63.68
13033;BME280;6583;42.632;23.298;2023-02-01T04:01:00;71821.50;;;-146.40;63.40
13033;BME280;6583;42.632;23.298;2023-02-01T04:03:27;71823.53;;;-146.40;63.33
13033;BME280;6583;42.632;23.298;2023-02-01T04:05:54;71815.44;;;-146.40;62.79
13033;BME280;6583;42.632;23.298;2023-02-01T04:08:21;71819.47;;;-146.40;63.20
13033;BME280;6583;42.632;23.298;2023-02-01T04:10:50;71813.41;;;-146.40;63.81
13033;BME280;6583;42.632;23.298;2023-02-01T04:13:16;71805.31;;;-146.40;64.38
13033;BME280;6583;42.632;23.298;2023-02-01T04:15:43;71821.50;;;-146.40;64.47
13033;BME280;6583;42.632;23.298;2023-02-01T04:18:10;71815.44;;;-146.40;65.05
13033;BME280;6583;42.632;23.298;2023-02-01T04:20:37;71809.34;;;-146.40;65.78
13033;BME280;6583;42.632;23.298;2023-02-01T04:23:04;71817.44;;;-146.40;66.80
13033;BME280;6583;42.632;23.298;2023-02-01T04:25:30;71825.53;;;-146.40;66.91
13033;BME280;6583;42.632;23.298;2023-02-01T04:27:58;71829.59;;;-146.40;67.33
13033;BME280;6583;42.632;23.298;2023-02-01T04:30:25;71821.50;;;-146.40;67.91
13033;BME280;6583;42.632;23.298;2023-02-01T04:32:52;71813.41;;;-146.40;68.52
13033;BME280;6583;42.632;23.298;2023-02-01T04:35:19;71817.44;;;-146.40;68.54
13033;BME280;6583;42.632;23.298;2023-02-01T04:37:45;71825.53;;;-146.40;68.40
13033;BME280;6583;42.632;23.298;2023-02-01T04:40:12;71815.44;;;-146.40;69.00
13033;BME280;6583;42.632;23.298;2023-02-01T04:42:39;71807.34;;;-146.40;69.05
13033;BME280;6583;42.632;23.298;2023-02-01T04:45:08;71805.31;;;-146.40;68.56
13033;BME280;6583;42.632;23.298;2023-02-01T04:47:35;71807.34;;;-146.40;69.14
13033;BME280;6583;42.632;23.298;2023-02-01T04:50:02;71813.41;;;-146.40;69.68
13033;BME280;6583;42.632;23.298;2023-02-01T04:52:28;71809.34;;;-146.40;70.02
13033;BME280;6583;42.632;23.298;2023-02-01T04:54:55;71813.41;;;-146.40;70.34
13033;BME280;6583;42.632;23.298;2023-02-01T04:57:24;71809.34;;;-146.40;70.99
13033;BME280;6583;42.632;23.298;2023-02-01T04:59:51;71815.44;;;-146.40;70.81
13033;BME280;6583;42.632;23.298;2023-02-01T05:02:19;71821.50;;;-146.40;70.52
13033;BME280;6583;42.632;23.298;2023-02-01T05:04:46;71825.53;;;-146.40;70.49
13033;BME280;6583;42.632;23.298;2023-02-01T05:07:13;71823.53;;;-146.40;71.21
13033;BME280;6583;42.632;23.298;2023-02-01T05:09:39;71823.53;;;-146.40;70.73
13033;BME280;6583;42.632;23.298;2023-02-01T05:12:07;71837.69;;;-146.40;70.41
13033;BME280;6583;42.632;23.298;2023-02-01T05:14:51;71831.63;;;-146.40;70.37
13033;BME280;6583;42.632;23.298;2023-02-01T05:17:19;71835.66;;;-146.40;70.73
13033;BME280;6583;42.632;23.298;2023-02-01T05:19:46;71825.53;;;-146.40;71.26
13033;BME280;6583;42.632;23.298;2023-02-01T05:22:13;71831.63;;;-146.40;71.60
13033;BME280;6583;42.632;23.298;2023-02-01T05:24:39;71831.63;;;-146.40;71.05
13033;BME280;6583;42.632;23.298;2023-02-01T05:27:06;71825.53;;;-146.40;71.94
13033;BME280;6583;42.632;23.298;2023-02-01T05:29:32;71809.34;;;-146.40;71.76
13033;BME280;6583;42.632;23.298;2023-02-01T05:31:59;71815.44;;;-146.40;71.26
13033;BME280;6583;42.632;23.298;2023-02-01T05:34:27;71809.34;;;-146.40;71.65
13033;BME280;6583;42.632;23.298;2023-02-01T05:36:54;71821.50;;;-146.40;70.99
13033;BME280;6583;42.632;23.298;2023-02-01T05:39:20;71821.50;;;-146.40;71.07
13033;BME280;6583;42.632;23.298;2023-02-01T05:41:47;71805.31;;;-146.40;71.10
13033;BME280;6583;42.632;23.298;2023-02-01T05:44:14;71801.25;;;-146.40;70.87
13033;BME280;6583;42.632;23.298;2023-02-01T05:46:40;71807.34;;;-146.40;70.68
13033;BME280;6583;42.632;23.298;2023-02-01T05:49:07;71799.25;;;-146.40;69.62
13033;BME280;6583;42.632;23.298;2023-02-01T05:51:35;71793.16;;;-146.40;69.33
13033;BME280;6583;42.632;23.298;2023-02-01T05:54:02;71797.22;;;-146.40;70.16
13033;BME280;6583;42.632;23.298;2023-02-01T05:56:29;71797.22;;;-146.40;67.95
13033;BME280;6583;42.632;23.298;2023-02-01T05:58:55;71779.00;;;-146.40;67.67
13033;BME280;6583;42.632;23.298;2023-02-01T06:01:22;71783.03;;;-146.40;67.55
13033;BME280;6583;42.632;23.298;2023-02-01T06:03:49;71779.00;;;-146.40;66.24
13033;BME280;6583;42.632;23.298;2023-02-01T06:06:15;71774.94;;;-146.40;65.99
13033;BME280;6583;42.632;23.298;2023-02-01T06:08:45;71774.94;;;-146.40;65.50
13033;BME280;6583;42.632;23.298;2023-02-01T06:11:12;71791.13;;;-146.40;64.73
13033;BME280;6583;42.632;23.298;2023-02-01T06:13:39;71774.94;;;-146.40;64.90
13033;BME280;6583;42.632;23.298;2023-02-01T06:16:06;71760.78;;;-146.40;64.11
13033;BME280;6583;42.632;23.298;2023-02-01T06:18:33;71764.81;;;-146.40;63.01
13033;BME280;6583;42.632;23.298;2023-02-01T06:21:00;71760.78;;;-146.40;63.43
13033;BME280;6583;42.632;23.298;2023-02-01T06:23:27;71770.91;;;-146.40;63.27
13033;BME280;6583;42.632;23.298;2023-02-01T06:26:00;71758.75;;;-146.40;63.69
13033;BME280;6583;42.632;23.298;2023-02-01T06:28:30;71764.81;;;-146.40;63.60
13033;BME280;6583;42.632;23.298;2023-02-01T06:30:56;71770.91;;;-146.40;63.04
13033;BME280;6583;42.632;23.298;2023-02-01T06:33:23;71768.88;;;-146.40;61.76
13033;BME280;6583;42.632;23.298;2023-02-01T06:35:56;71752.69;;;-146.40;63.51
13033;BME280;6583;42.632;23.298;2023-02-01T06:38:24;71748.63;;;-146.40;60.99
13033;BME280;6583;42.632;23.298;2023-02-01T06:40:52;71760.78;;;-146.40;60.63
13033;BME280;6583;42.632;23.298;2023-02-01T06:43:21;71754.72;;;-146.40;60.75
13033;BME280;6583;42.632;23.298;2023-02-01T06:45:48;71748.63;;;-146.40;60.46
13033;BME280;6583;42.632;23.298;2023-02-01T06:48:14;71740.53;;;-146.40;61.03
13033;BME280;6583;42.632;23.298;2023-02-01T06:50:41;71746.63;;;-146.40;60.49
13033;BME280;6583;42.632;23.298;2023-02-01T06:53:08;71752.69;;;-146.40;60.07
13033;BME280;6583;42.632;23.298;2023-02-01T06:55:34;71748.63;;;-146.40;60.35
13033;BME280;6583;42.632;23.298;2023-02-01T06:58:01;71744.59;;;-146.40;60.58
13033;BME280;6583;42.632;23.298;2023-02-01T07:00:29;71740.53;;;-146.40;61.99
13033;BME280;6583;42.632;23.298;2023-02-01T07:02:57;71744.59;;;-146.40;60.91
13033;BME280;6583;42.632;23.298;2023-02-01T07:05:25;71748.63;;;-146.40;60.61
13033;BME280;6583;42.632;23.298;2023-02-01T07:07:51;71752.69;;;-146.40;59.74
13033;BME280;6583;42.632;23.298;2023-02-01T07:10:18;71756.72;;;-146.40;60.92
13033;BME280;6583;42.632;23.298;2023-02-01T07:12:45;71768.88;;;-146.40;59.83
13033;BME280;6583;42.632;23.298;2023-02-01T07:15:11;71764.81;;;-146.40;60.78
13033;BME280;6583;42.632;23.298;2023-02-01T07:17:39;71760.78;;;-146.40;60.50
13033;BME280;6583;42.632;23.298;2023-02-01T07:20:08;71750.66;;;-146.40;61.16
13033;BME280;6583;42.632;23.298;2023-02-01T07:22:34;71754.72;;;-146.40;60.10
13033;BME280;6583;42.632;23.298;2023-02-01T07:25:01;71764.81;;;-146.40;59.38
13033;BME280;6583;42.632;23.298;2023-02-01T07:27:33;71764.81;;;-146.40;59.85
13033;BME280;6583;42.632;23.298;2023-02-01T07:30:00;71756.72;;;-146.40;58.78
13033;BME280;6583;42.632;23.298;2023-02-01T07:32:28;71750.66;;;-146.40;59.12
13033;BME280;6583;42.632;23.298;2023-02-01T07:34:56;71742.56;;;-146.40;59.37
13033;BME280;6583;42.632;23.298;2023-02-01T07:37:22;71738.53;;;-146.40;57.74
13033;BME280;6583;42.632;23.298;2023-02-01T07:39:50;71736.50;;;-146.40;57.93
13033;BME280;6583;42.632;23.298;2023-02-01T07:42:17;71750.66;;;-146.40;57.38
13033;BME280;6583;42.632;23.298;2023-02-01T07:44:44;71750.66;;;-146.40;57.29
13033;BME280;6583;42.632;23.298;2023-02-01T07:47:10;71744.59;;;-146.40;58.71
13033;BME280;6583;42.632;23.298;2023-02-01T07:49:37;71736.50;;;-146.40;58.64
13033;BME280;6583;42.632;23.298;2023-02-01T07:52:05;71750.66;;;-146.40;58.24
13033;BME280;6583;42.632;23.298;2023-02-01T07:54:32;71756.72;;;-146.40;57.12
13033;BME280;6583;42.632;23.298;2023-02-01T07:56:58;71744.59;;;-146.40;56.82
13033;BME280;6583;42.632;23.298;2023-02-01T07:59:25;71744.59;;;-146.40;58.43
13033;BME280;6583;42.632;23.298;2023-02-01T08:01:52;71744.59;;;-146.40;58.56
13033;BME280;6583;42.632;23.298;2023-02-01T08:04:17;71748.63;;;-146.40;56.95
13033;BME280;6583;42.632;23.298;2023-02-01T08:06:44;71732.44;;;-146.40;57.56
13033;BME280;6583;42.632;23.298;2023-02-01T08:09:12;71740.53;;;-146.40;57.42
13033;BME280;6583;42.632;23.298;2023-02-01T08:11:39;71750.66;;;-146.40;56.64
13033;BME280;6583;42.632;23.298;2023-02-01T08:14:05;71732.44;;;-146.40;58.66
13033;BME280;6583;42.632;23.298;2023-02-01T08:16:32;71746.63;;;-146.40;59.02
13033;BME280;6583;42.632;23.298;2023-02-01T08:19:00;71724.34;;;-146.40;58.28
13033;BME280;6583;42.632;23.298;2023-02-01T08:21:28;71734.47;;;-146.40;57.52
13033;BME280;6583;42.632;23.298;2023-02-01T08:24:02;71718.28;;;-146.40;57.70
13033;BME280;6583;42.632;23.298;2023-02-01T08:26:31;71718.28;;;-146.40;58.19
13033;BME280;6583;42.632;23.298;2023-02-01T08:29:00;71704.09;;;-146.40;56.44
13033;BME280;6583;42.632;23.298;2023-02-01T08:31:28;71700.06;;;-146.40;57.72
13033;BME280;6583;42.632;23.298;2023-02-01T08:33:56;71689.94;;;-146.40;58.29
13033;BME280;6583;42.632;23.298;2023-02-01T08:36:25;71694.00;;;-146.40;57.44
13033;BME280;6583;42.632;23.298;2023-02-01T08:38:52;71685.91;;;-146.40;56.76
13033;BME280;6583;42.632;23.298;2023-02-01T08:41:21;71687.91;;;-146.40;55.78
13033;BME280;6583;42.632;23.298;2023-02-01T08:43:50;71679.81;;;-146.40;56.34
13033;BME280;6583;42.632;23.298;2023-02-01T08:46:17;71679.81;;;-146.40;55.06
13033;BME280;6583;42.632;23.298;2023-02-01T08:48:45;71677.81;;;-146.40;55.79
13033;BME280;6583;42.632;23.298;2023-02-01T08:51:13;71675.78;;;-146.40;56.06
13033;BME280;6583;42.632;23.298;2023-02-01T08:53:42;71659.59;;;-146.40;56.46
13033;BME280;6583;42.632;23.298;2023-02-01T08:56:10;71663.63;;;-146.40;56.22
13033;BME280;6583;42.632;23.298;2023-02-01T08:58:37;71657.56;;;-146.40;55.41
13033;BME280;6583;42.632;23.298;2023-02-01T09:01:07;71655.53;;;-146.40;56.23
13033;BME280;6583;42.632;23.298;2023-02-01T09:03:34;71651.50;;;-146.40;55.64
13033;BME280;6583;42.632;23.298;2023-02-01T09:06:02;71659.59;;;-146.40;54.55
13033;BME280;6583;42.632;23.298;2023-02-01T09:08:29;71661.59;;;-146.40;55.32
13033;BME280;6583;42.632;23.298;2023-02-01T09:10:59;71675.78;;;-146.40;55.55
13033;BME280;6583;42.632;23.298;2023-02-01T09:13:25;71655.53;;;-146.40;55.35
13033;BME280;6583;42.632;23.298;2023-02-01T09:15:52;71661.59;;;-146.40;54.07
13033;BME280;6583;42.632;23.298;2023-02-01T09:18:20;71647.44;;;-146.40;55.12
13033;BME280;6583;42.632;23.298;2023-02-01T09:20:47;71639.34;;;-146.40;55.29
13033;BME280;6583;42.632;23.298;2023-02-01T09:23:14;71635.31;;;-146.40;53.83
13033;BME280;6583;42.632;23.298;2023-02-01T09:25:40;71631.25;;;-146.40;53.44
13033;BME280;6583;42.632;23.298;2023-02-01T09:28:07;71635.31;;;-146.40;53.79
13033;BME280;6583;42.632;23.298;2023-02-01T09:30:34;71635.31;;;-146.40;52.58
13033;BME280;6583;42.632;23.298;2023-02-01T09:33:02;71639.34;;;-146.40;53.10
13033;BME280;6583;42.632;23.298;2023-02-01T09:35:30;71617.09;;;-146.40;54.10
13033;BME280;6583;42.632;23.298;2023-02-01T09:37:57;71637.31;;;-146.40;54.23
13033;BME280;6583;42.632;23.298;2023-02-01T09:40:24;71627.19;;;-146.40;53.35
13033;BME280;6583;42.632;23.298;2023-02-01T09:43:06;71619.09;;;-146.40;53.12
13033;BME280;6583;42.632;23.298;2023-02-01T09:45:43;71615.06;;;-146.40;52.96
13033;BME280;6583;42.632;23.298;2023-02-01T09:48:14;71606.97;;;-146.40;52.36
13033;BME280;6583;42.632;23.298;2023-02-01T09:50:45;71625.19;;;-146.40;50.58
13033;BME280;6583;42.632;23.298;2023-02-01T09:53:18;71627.19;;;-146.40;49.80
13033;BME280;6583;42.632;23.298;2023-02-01T09:55:49;71602.91;;;-146.40;52.30
13033;BME280;6583;42.632;23.298;2023-02-01T09:58:20;71590.78;;;-146.40;50.74
13033;BME280;6583;42.632;23.298;2023-02-01T10:00:52;71604.94;;;-146.40;51.71
13033;BME280;6583;42.632;23.298;2023-02-01T10:03:20;71590.78;;;-146.40;51.61
13033;BME280;6583;42.632;23.298;2023-02-01T10:06:02;71598.88;;;-146.40;51.38
13033;BME280;6583;42.632;23.298;2023-02-01T10:08:40;71592.78;;;-146.40;51.27
13033;BME280;6583;42.632;23.298;2023-02-01T10:11:20;71590.78;;;-146.40;51.80
13033;BME280;6583;42.632;23.298;2023-02-01T10:13:55;71584.69;;;-146.40;50.54
13033;BME280;6583;42.632;23.298;2023-02-01T10:16:35;71574.59;;;-146.40;51.21
13033;BME280;6583;42.632;23.298;2023-02-01T10:19:25;71562.44;;;-146.40;51.73
13033;BME280;6583;42.632;23.298;2023-02-01T10:21:59;71548.28;;;-146.40;51.91
13033;BME280;6583;42.632;23.298;2023-02-01T10:24:40;71544.22;;;-146.40;51.65
13033;BME280;6583;42.632;23.298;2023-02-01T10:27:13;71536.13;;;-146.40;51.22
13033;BME280;6583;42.632;23.298;2023-02-01T10:29:42;71519.94;;;-146.40;51.00
13033;BME280;6583;42.632;23.298;2023-02-01T10:32:13;71509.81;;;-146.40;49.79
13033;BME280;6583;42.632;23.298;2023-02-01T10:34:42;71489.59;;;-146.40;50.38
13033;BME280;6583;42.632;23.298;2023-02-01T10:37:18;71473.41;;;-146.40;49.18
13033;BME280;6583;42.632;23.298;2023-02-01T10:39:47;71461.25;;;-146.40;48.79
13033;BME280;6583;42.632;23.298;2023-02-01T10:42:15;71457.19;;;-146.40;48.77
13033;BME280;6583;42.632;23.298;2023-02-01T10:44:44;71459.22;;;-146.40;48.60
13033;BME280;6583;42.632;23.298;2023-02-01T10:47:13;71459.22;;;-146.40;48.54
13033;BME280;6583;42.632;23.298;2023-02-01T10:49:45;71451.13;;;-146.40;47.80
13033;BME280;6583;42.632;23.298;2023-02-01T10:52:19;71489.59;;;-146.40;48.10
13033;BME280;6583;42.632;23.298;2023-02-01T10:54:47;71497.69;;;-146.40;49.08
13033;BME280;6583;42.632;23.298;2023-02-01T10:57:21;71493.63;;;-146.40;50.26
13033;BME280;6583;42.632;23.298;2023-02-01T10:59:49;71493.63;;;-146.40;49.84
13033;BME280;6583;42.632;23.298;2023-02-01T11:02:21;71485.53;;;-146.40;50.68
13033;BME280;6583;42.632;23.298;2023-02-01T11:04:59;71471.38;;;-146.40;49.29
13033;BME280;6583;42.632;23.298;2023-02-01T11:07:29;71471.38;;;-146.40;49.04
13033;BME280;6583;42.632;23.298;2023-02-01T11:09:56;71475.41;;;-146.40;48.66
13033;BME280;6583;42.632;23.298;2023-02-01T11:12:28;71485.53;;;-146.40;47.87
13033;BME280;6583;42.632;23.298;2023-02-01T11:15:03;71473.41;;;-146.40;48.71
13033;BME280;6583;42.632;23.298;2023-02-01T11:17:40;71467.31;;;-146.40;48.10
13033;BME280;6583;42.632;23.298;2023-02-01T11:20:15;71457.19;;;-146.40;49.92
13033;BME280;6583;42.632;23.298;2023-02-01T11:22:48;71471.38;;;-146.40;48.64
13033;BME280;6583;42.632;23.298;2023-02-01T11:25:16;71443.03;;;-146.40;48.01
13033;BME280;6583;42.632;23.298;2023-02-01T11:27:44;71436.97;;;-146.40;47.96
13033;BME280;6583;42.632;23.298;2023-02-01T11:30:16;71443.03;;;-146.40;47.78
13033;BME280;6583;42.632;23.298;2023-02-01T11:32:45;71441.00;;;-146.40;46.74
13033;BME280;6583;42.632;23.298;2023-02-01T11:35:15;71434.94;;;-146.40;47.54
13033;BME280;6583;42.632;23.298;2023-02-01T11:37:44;71441.00;;;-146.40;47.64
13033;BME280;6583;42.632;23.298;2023-02-01T11:40:27;71428.88;;;-146.40;47.18
13033;BME280;6583;42.632;23.298;2023-02-01T11:42:56;71451.13;;;-146.40;47.25
13033;BME280;6583;42.632;23.298;2023-02-01T11:45:27;71439.00;;;-146.40;47.92
13033;BME280;6583;42.632;23.298;2023-02-01T11:47:56;71453.16;;;-146.40;47.95
13033;BME280;6583;42.632;23.298;2023-02-01T11:50:30;71441.00;;;-146.40;47.13
13033;BME280;6583;42.632;23.298;2023-02-01T11:53:14;71432.91;;;-146.40;47.68
13033;BME280;6583;42.632;23.298;2023-02-01T11:55:56;71424.81;;;-146.40;47.55
13033;BME280;6583;42.632;23.298;2023-02-01T12:01:33;71400.53;;;-146.40;48.15
13033;BME280;6583;42.632;23.298;2023-02-01T12:04:29;71388.41;;;-146.40;46.32
13033;BME280;6583;42.632;23.298;2023-02-01T12:07:11;71392.44;;;-146.40;46.01
13033;BME280;6583;42.632;23.298;2023-02-01T12:09:52;71388.41;;;-146.40;47.06
13033;BME280;6583;42.632;23.298;2023-02-01T12:12:45;71388.41;;;-146.40;47.59
13033;BME280;6583;42.632;23.298;2023-02-01T12:15:32;71394.47;;;-146.40;46.25
13033;BME280;6583;42.632;23.298;2023-02-01T12:21:29;71396.50;;;-146.40;46.99
13033;BME280;6583;42.632;23.298;2023-02-01T12:24:15;71396.50;;;-146.40;47.99
13033;BME280;6583;42.632;23.298;2023-02-01T12:26:51;71378.28;;;-146.40;47.85
13033;BME280;6583;42.632;23.298;2023-02-01T12:29:34;71380.31;;;-146.40;48.35
13033;BME280;6583;42.632;23.298;2023-02-01T12:32:20;71370.19;;;-146.40;45.98
13033;BME280;6583;42.632;23.298;2023-02-01T12:35:04;71384.34;;;-146.40;44.80
13033;BME280;6583;42.632;23.298;2023-02-01T12:37:48;71398.50;;;-146.40;45.73
13033;BME280;6583;42.632;23.298;2023-02-01T12:40:28;71400.53;;;-146.40;46.62
13033;BME280;6583;42.632;23.298;2023-02-01T12:43:01;71420.78;;;-146.40;46.41
13033;BME280;6583;42.632;23.298;2023-02-01T12:45:38;71418.75;;;-146.40;47.73
13033;BME280;6583;42.632;23.298;2023-02-01T12:48:19;71416.72;;;-146.40;47.91
13033;BME280;6583;42.632;23.298;2023-02-01T12:50:50;71434.94;;;-146.40;45.42
13033;BME280;6583;42.632;23.298;2023-02-01T12:53:23;71441.00;;;-146.40;46.45
13033;BME280;6583;42.632;23.298;2023-02-01T12:55:54;71428.88;;;-146.40;46.03
13033;BME280;6583;42.632;23.298;2023-02-01T12:58:24;71416.72;;;-146.40;46.64
13033;BME280;6583;42.632;23.298;2023-02-01T13:00:58;71418.75;;;-146.40;47.17
13033;BME280;6583;42.632;23.298;2023-02-01T13:03:35;71412.69;;;-146.40;48.40
13033;BME280;6583;42.632;23.298;2023-02-01T13:06:07;71434.94;;;-146.40;46.81
13033;BME280;6583;42.632;23.298;2023-02-01T13:08:41;71424.81;;;-146.40;45.93